sensor_id;sensor_type;location;lat;lon;timestamp;P1;durP1;ratioP1;P2;durP2;ratioP2
29550;SDS011;16488;52.396;10.696;2023-05-17T00:02:24;18.25;;;5.72;;
29550;SDS011;16488;52.396;10.696;2023-05-17T00:04:50;17.55;;;5.03;;
29550;SDS011;16488;52.396;10.696;2023-05-17T00:07:17;8.95;;;4.88;;
29550;SDS011;16488;52.396;10.696;2023-05-17T00:09:43;11.82;;;4.50;;
29550;SDS011;16488;52.396;10.696;2023-05-17T00:12:08;12.35;;;5.00;;
29550;SDS011;16488;52.396;10.696;2023-05-17T00:14:34;15.93;;;5.25;;
29550;SDS011;16488;52.396;10.696;2023-05-17T00:17:00;13.63;;;5.00;;
29550;SDS011;16488;52.396;10.696;2023-05-17T00:19:26;17.15;;;5.00;;
29550;SDS011;16488;52.396;10.696;2023-05-17T00:21:51;22.08;;;4.93;;
29550;SDS011;16488;52.396;10.696;2023-05-17T00:24:17;14.43;;;5.07;;
29550;SDS011;16488;52.396;10.696;2023-05-17T00:26:42;18.60;;;5.53;;
29550;SDS011;16488;52.396;10.696;2023-05-17T00:29:08;13.68;;;5.88;;
29550;SDS011;16488;52.396;10.696;2023-05-17T00:31:33;31.42;;;6.22;;
29550;SDS011;16488;52.396;10.696;2023-05-17T00:33:59;13.20;;;4.45;;
29550;SDS011;16488;52.396;10.696;2023-05-17T00:36:24;14.75;;;4.68;;
29550;SDS011;16488;52.396;10.696;2023-05-17T00:38:50;9.65;;;4.53;;
29550;SDS011;16488;52.396;10.696;2023-05-17T00:41:16;13.32;;;5.47;;
29550;SDS011;16488;52.396;10.696;2023-05-17T00:43:42;16.10;;;5.72;;
29550;SDS011;16488;52.396;10.696;2023-05-17T00:46:07;12.32;;;5.40;;
29550;SDS011;16488;52.396;10.696;2023-05-17T00:48:33;14.52;;;4.88;;
29550;SDS011;16488;52.396;10.696;2023-05-17T00:50:59;17.92;;;6.38;;
29550;SDS011;16488;52.396;10.696;2023-05-17T00:53:24;15.23;;;5.13;;
29550;SDS011;16488;52.396;10.696;2023-05-17T00:55:52;22.83;;;6.10;;
29550;SDS011;16488;52.396;10.696;2023-05-17T00:58:19;18.60;;;5.45;;
29550;SDS011;16488;52.396;10.696;2023-05-17T01:00:45;16.65;;;5.15;;
29550;SDS011;16488;52.396;10.696;2023-05-17T01:03:11;19.35;;;5.18;;
29550;SDS011;16488;52.396;10.696;2023-05-17T01:05:37;11.95;;;5.15;;
29550;SDS011;16488;52.396;10.696;2023-05-17T01:08:02;15.60;;;4.70;;
29550;SDS011;16488;52.396;10.696;2023-05-17T01:10:35;20.23;;;5.13;;
29550;SDS011;16488;52.396;10.696;2023-05-17T01:13:26;16.30;;;5.07;;
29550;SDS011;16488;52.396;10.696;2023-05-17T01:16:09;23.83;;;5.80;;
29550;SDS011;16488;52.396;10.696;2023-05-17T01:18:47;21.25;;;5.47;;
29550;SDS011;16488;52.396;10.696;2023-05-17T01:21:34;18.40;;;5.93;;
29550;SDS011;16488;52.396;10.696;2023-05-17T01:24:11;13.90;;;4.90;;
29550;SDS011;16488;52.396;10.696;2023-05-17T01:26:50;17.90;;;5.45;;
29550;SDS011;16488;52.396;10.696;2023-05-17T01:29:18;10.95;;;4.93;;
29550;SDS011;16488;52.396;10.696;2023-05-17T01:31:47;15.85;;;5.03;;
29550;SDS011;16488;52.396;10.696;2023-05-17T01:34:13;24.85;;;5.45;;
29550;SDS011;16488;52.396;10.696;2023-05-17T01:36:52;21.88;;;5.97;;
29550;SDS011;16488;52.396;10.696;2023-05-17T01:39:18;20.63;;;7.75;;
29550;SDS011;16488;52.396;10.696;2023-05-17T01:41:45;17.20;;;6.35;;
29550;SDS011;16488;52.396;10.696;2023-05-17T01:47:18;13.70;;;4.82;;
29550;SDS011;16488;52.396;10.696;2023-05-17T01:49:53;12.35;;;4.82;;
29550;SDS011;16488;52.396;10.696;2023-05-17T01:52:27;21.27;;;5.28;;
29550;SDS011;16488;52.396;10.696;2023-05-17T01:55:08;14.40;;;5.35;;
29550;SDS011;16488;52.396;10.696;2023-05-17T01:57:42;10.95;;;4.88;;
29550;SDS011;16488;52.396;10.696;2023-05-17T02:00:11;15.80;;;6.22;;
29550;SDS011;16488;52.396;10.696;2023-05-17T02:02:38;14.68;;;5.25;;
29550;SDS011;16488;52.396;10.696;2023-05-17T02:05:03;17.70;;;5.75;;
29550;SDS011;16488;52.396;10.696;2023-05-17T02:07:29;21.02;;;6.22;;
29550;SDS011;16488;52.396;10.696;2023-05-17T02:09:55;24.17;;;5.57;;
29550;SDS011;16488;52.396;10.696;2023-05-17T02:12:21;14.73;;;4.85;;
29550;SDS011;16488;52.396;10.696;2023-05-17T02:14:46;22.10;;;6.17;;
29550;SDS011;16488;52.396;10.696;2023-05-17T02:17:12;21.27;;;5.88;;
29550;SDS011;16488;52.396;10.696;2023-05-17T02:19:38;11.60;;;5.47;;
29550;SDS011;16488;52.396;10.696;2023-05-17T02:22:04;24.77;;;5.30;;
29550;SDS011;16488;52.396;10.696;2023-05-17T02:24:29;19.80;;;6.50;;
29550;SDS011;16488;52.396;10.696;2023-05-17T02:26:55;17.63;;;6.05;;
29550;SDS011;16488;52.396;10.696;2023-05-17T02:29:20;15.77;;;6.20;;
29550;SDS011;16488;52.396;10.696;2023-05-17T02:31:46;26.60;;;6.50;;
29550;SDS011;16488;52.396;10.696;2023-05-17T02:34:12;18.83;;;5.93;;
29550;SDS011;16488;52.396;10.696;2023-05-17T02:36:37;19.77;;;6.35;;
29550;SDS011;16488;52.396;10.696;2023-05-17T02:39:04;16.17;;;5.90;;
29550;SDS011;16488;52.396;10.696;2023-05-17T02:41:30;19.80;;;6.55;;
29550;SDS011;16488;52.396;10.696;2023-05-17T02:43:56;16.63;;;6.68;;
29550;SDS011;16488;52.396;10.696;2023-05-17T02:46:21;23.58;;;7.38;;
29550;SDS011;16488;52.396;10.696;2023-05-17T02:48:47;23.20;;;6.53;;
29550;SDS011;16488;52.396;10.696;2023-05-17T02:51:13;12.35;;;5.78;;
29550;SDS011;16488;52.396;10.696;2023-05-17T02:53:38;23.83;;;7.47;;
29550;SDS011;16488;52.396;10.696;2023-05-17T02:56:04;24.35;;;7.20;;
29550;SDS011;16488;52.396;10.696;2023-05-17T02:58:30;21.88;;;6.32;;
29550;SDS011;16488;52.396;10.696;2023-05-17T03:00:55;21.98;;;7.85;;
29550;SDS011;16488;52.396;10.696;2023-05-17T03:03:21;30.38;;;6.95;;
29550;SDS011;16488;52.396;10.696;2023-05-17T03:05:47;24.33;;;6.78;;
29550;SDS011;16488;52.396;10.696;2023-05-17T03:08:12;18.40;;;8.80;;
29550;SDS011;16488;52.396;10.696;2023-05-17T03:10:38;16.38;;;6.13;;
29550;SDS011;16488;52.396;10.696;2023-05-17T03:13:03;27.30;;;7.00;;
29550;SDS011;16488;52.396;10.696;2023-05-17T03:15:29;17.58;;;6.75;;
29550;SDS011;16488;52.396;10.696;2023-05-17T03:17:55;23.35;;;7.38;;
29550;SDS011;16488;52.396;10.696;2023-05-17T03:20:21;13.63;;;6.28;;
29550;SDS011;16488;52.396;10.696;2023-05-17T03:25:12;27.02;;;6.80;;
29550;SDS011;16488;52.396;10.696;2023-05-17T03:27:38;22.05;;;7.85;;
29550;SDS011;16488;52.396;10.696;2023-05-17T03:30:03;17.98;;;7.60;;
29550;SDS011;16488;52.396;10.696;2023-05-17T03:32:29;25.80;;;7.47;;
29550;SDS011;16488;52.396;10.696;2023-05-17T03:34:55;22.50;;;7.22;;
29550;SDS011;16488;52.396;10.696;2023-05-17T03:37:21;13.35;;;6.28;;
29550;SDS011;16488;52.396;10.696;2023-05-17T03:39:46;23.05;;;6.40;;
29550;SDS011;16488;52.396;10.696;2023-05-17T03:42:12;17.27;;;6.10;;
29550;SDS011;16488;52.396;10.696;2023-05-17T03:44:38;19.48;;;7.20;;
29550;SDS011;16488;52.396;10.696;2023-05-17T03:47:05;20.20;;;6.50;;
29550;SDS011;16488;52.396;10.696;2023-05-17T03:49:30;23.42;;;6.63;;
29550;SDS011;16488;52.396;10.696;2023-05-17T03:51:56;24.63;;;6.32;;
29550;SDS011;16488;52.396;10.696;2023-05-17T03:54:22;21.10;;;6.43;;
29550;SDS011;16488;52.396;10.696;2023-05-17T03:56:47;12.93;;;6.32;;
29550;SDS011;16488;52.396;10.696;2023-05-17T04:01:41;16.52;;;6.28;;
29550;SDS011;16488;52.396;10.696;2023-05-17T04:04:07;19.50;;;6.03;;
29550;SDS011;16488;52.396;10.696;2023-05-17T04:06:33;18.00;;;6.28;;
29550;SDS011;16488;52.396;10.696;2023-05-17T04:08:59;12.05;;;6.03;;
29550;SDS011;16488;52.396;10.696;2023-05-17T04:11:25;19.00;;;7.03;;
29550;SDS011;16488;52.396;10.696;2023-05-17T04:13:52;22.10;;;7.10;;
29550;SDS011;16488;52.396;10.696;2023-05-17T04:16:18;21.23;;;7.38;;
29550;SDS011;16488;52.396;10.696;2023-05-17T04:18:45;17.95;;;6.25;;
29550;SDS011;16488;52.396;10.696;2023-05-17T04:21:10;23.30;;;7.63;;
29550;SDS011;16488;52.396;10.696;2023-05-17T04:23:36;23.40;;;8.13;;
29550;SDS011;16488;52.396;10.696;2023-05-17T04:26:02;36.92;;;10.73;;
29550;SDS011;16488;52.396;10.696;2023-05-17T04:28:29;28.23;;;7.85;;
29550;SDS011;16488;52.396;10.696;2023-05-17T04:33:22;22.75;;;7.53;;
29550;SDS011;16488;52.396;10.696;2023-05-17T04:35:48;23.27;;;8.50;;
29550;SDS011;16488;52.396;10.696;2023-05-17T04:38:14;24.67;;;8.15;;
29550;SDS011;16488;52.396;10.696;2023-05-17T04:40:40;30.13;;;7.57;;
29550;SDS011;16488;52.396;10.696;2023-05-17T04:43:06;23.70;;;7.57;;
29550;SDS011;16488;52.396;10.696;2023-05-17T04:45:32;26.05;;;7.80;;
29550;SDS011;16488;52.396;10.696;2023-05-17T04:47:58;32.30;;;7.63;;
29550;SDS011;16488;52.396;10.696;2023-05-17T04:50:24;31.90;;;7.65;;
29550;SDS011;16488;52.396;10.696;2023-05-17T04:52:50;27.42;;;7.70;;
29550;SDS011;16488;52.396;10.696;2023-05-17T04:55:15;21.08;;;7.32;;
29550;SDS011;16488;52.396;10.696;2023-05-17T04:57:41;24.35;;;7.38;;
29550;SDS011;16488;52.396;10.696;2023-05-17T05:00:07;20.13;;;7.90;;
29550;SDS011;16488;52.396;10.696;2023-05-17T05:02:36;26.27;;;7.25;;
29550;SDS011;16488;52.396;10.696;2023-05-17T05:05:02;30.52;;;7.35;;
29550;SDS011;16488;52.396;10.696;2023-05-17T05:07:28;28.10;;;7.75;;
29550;SDS011;16488;52.396;10.696;2023-05-17T05:12:20;35.97;;;6.90;;
29550;SDS011;16488;52.396;10.696;2023-05-17T05:14:47;20.88;;;6.22;;
29550;SDS011;16488;52.396;10.696;2023-05-17T05:17:12;19.02;;;6.13;;
29550;SDS011;16488;52.396;10.696;2023-05-17T05:19:38;28.95;;;6.40;;
29550;SDS011;16488;52.396;10.696;2023-05-17T05:22:03;23.85;;;6.43;;
29550;SDS011;16488;52.396;10.696;2023-05-17T05:24:29;24.42;;;5.95;;
29550;SDS011;16488;52.396;10.696;2023-05-17T05:26:55;26.33;;;7.07;;
29550;SDS011;16488;52.396;10.696;2023-05-17T05:29:20;41.15;;;8.13;;
29550;SDS011;16488;52.396;10.696;2023-05-17T05:31:46;35.80;;;6.53;;
29550;SDS011;16488;52.396;10.696;2023-05-17T05:34:11;23.50;;;5.70;;
29550;SDS011;16488;52.396;10.696;2023-05-17T05:36:37;33.85;;;7.35;;
29550;SDS011;16488;52.396;10.696;2023-05-17T05:39:03;33.35;;;6.60;;
29550;SDS011;16488;52.396;10.696;2023-05-17T05:41:28;24.77;;;5.70;;
29550;SDS011;16488;52.396;10.696;2023-05-17T05:43:56;35.63;;;6.68;;
29550;SDS011;16488;52.396;10.696;2023-05-17T05:46:22;28.20;;;6.38;;
29550;SDS011;16488;52.396;10.696;2023-05-17T05:48:47;36.87;;;5.03;;
29550;SDS011;16488;52.396;10.696;2023-05-17T05:51:13;33.17;;;6.50;;
29550;SDS011;16488;52.396;10.696;2023-05-17T05:53:38;19.42;;;4.53;;
29550;SDS011;16488;52.396;10.696;2023-05-17T05:56:04;19.95;;;4.88;;
29550;SDS011;16488;52.396;10.696;2023-05-17T05:58:30;15.88;;;5.25;;
29550;SDS011;16488;52.396;10.696;2023-05-17T06:00:56;29.40;;;5.18;;
29550;SDS011;16488;52.396;10.696;2023-05-17T06:03:22;21.55;;;4.93;;
29550;SDS011;16488;52.396;10.696;2023-05-17T06:08:14;30.55;;;5.05;;
29550;SDS011;16488;52.396;10.696;2023-05-17T06:10:39;20.45;;;4.22;;
29550;SDS011;16488;52.396;10.696;2023-05-17T06:13:05;29.38;;;5.70;;
29550;SDS011;16488;52.396;10.696;2023-05-17T06:15:31;17.42;;;3.88;;
29550;SDS011;16488;52.396;10.696;2023-05-17T06:17:56;16.98;;;4.50;;
29550;SDS011;16488;52.396;10.696;2023-05-17T06:20:22;21.13;;;4.65;;
29550;SDS011;16488;52.396;10.696;2023-05-17T06:22:48;28.35;;;4.25;;
29550;SDS011;16488;52.396;10.696;2023-05-17T06:25:13;21.85;;;4.18;;
29550;SDS011;16488;52.396;10.696;2023-05-17T06:27:39;19.27;;;4.63;;
29550;SDS011;16488;52.396;10.696;2023-05-17T06:30:05;20.67;;;3.85;;
29550;SDS011;16488;52.396;10.696;2023-05-17T06:32:31;19.92;;;4.65;;
29550;SDS011;16488;52.396;10.696;2023-05-17T06:34:57;20.30;;;5.38;;
29550;SDS011;16488;52.396;10.696;2023-05-17T06:37:23;24.92;;;3.65;;
29550;SDS011;16488;52.396;10.696;2023-05-17T06:39:51;15.60;;;3.83;;
29550;SDS011;16488;52.396;10.696;2023-05-17T06:42:17;23.10;;;5.30;;
29550;SDS011;16488;52.396;10.696;2023-05-17T06:44:43;18.20;;;3.80;;
29550;SDS011;16488;52.396;10.696;2023-05-17T06:47:08;20.05;;;3.40;;
29550;SDS011;16488;52.396;10.696;2023-05-17T06:49:35;19.27;;;3.40;;
29550;SDS011;16488;52.396;10.696;2023-05-17T06:52:02;14.63;;;2.90;;
29550;SDS011;16488;52.396;10.696;2023-05-17T06:54:29;27.73;;;3.70;;
29550;SDS011;16488;52.396;10.696;2023-05-17T06:56:59;22.33;;;5.13;;
29550;SDS011;16488;52.396;10.696;2023-05-17T06:59:27;14.60;;;3.67;;
29550;SDS011;16488;52.396;10.696;2023-05-17T07:01:53;19.70;;;3.65;;
29550;SDS011;16488;52.396;10.696;2023-05-17T07:04:19;21.23;;;3.90;;
29550;SDS011;16488;52.396;10.696;2023-05-17T07:06:45;17.05;;;3.70;;
29550;SDS011;16488;52.396;10.696;2023-05-17T07:09:11;14.32;;;3.53;;
29550;SDS011;16488;52.396;10.696;2023-05-17T07:11:36;14.98;;;3.47;;
29550;SDS011;16488;52.396;10.696;2023-05-17T07:14:02;11.75;;;2.65;;
29550;SDS011;16488;52.396;10.696;2023-05-17T07:16:28;19.15;;;3.15;;
29550;SDS011;16488;52.396;10.696;2023-05-17T07:18:54;21.70;;;3.05;;
29550;SDS011;16488;52.396;10.696;2023-05-17T07:21:20;14.15;;;3.17;;
29550;SDS011;16488;52.396;10.696;2023-05-17T07:23:47;17.27;;;3.83;;
29550;SDS011;16488;52.396;10.696;2023-05-17T07:26:13;7.97;;;2.08;;
29550;SDS011;16488;52.396;10.696;2023-05-17T07:28:39;10.88;;;2.47;;
29550;SDS011;16488;52.396;10.696;2023-05-17T07:31:05;22.67;;;2.90;;
29550;SDS011;16488;52.396;10.696;2023-05-17T07:33:30;18.38;;;2.90;;
29550;SDS011;16488;52.396;10.696;2023-05-17T07:35:56;12.35;;;2.75;;
29550;SDS011;16488;52.396;10.696;2023-05-17T07:38:22;23.83;;;2.88;;
29550;SDS011;16488;52.396;10.696;2023-05-17T07:40:47;14.25;;;3.03;;
29550;SDS011;16488;52.396;10.696;2023-05-17T07:43:13;18.73;;;2.20;;
29550;SDS011;16488;52.396;10.696;2023-05-17T07:45:38;31.70;;;3.72;;
29550;SDS011;16488;52.396;10.696;2023-05-17T07:48:04;13.98;;;3.25;;
29550;SDS011;16488;52.396;10.696;2023-05-17T07:50:30;24.25;;;3.17;;
29550;SDS011;16488;52.396;10.696;2023-05-17T07:52:56;20.30;;;3.63;;
29550;SDS011;16488;52.396;10.696;2023-05-17T07:55:22;20.20;;;3.70;;
29550;SDS011;16488;52.396;10.696;2023-05-17T07:57:48;22.63;;;3.30;;
29550;SDS011;16488;52.396;10.696;2023-05-17T08:00:13;18.88;;;3.53;;
29550;SDS011;16488;52.396;10.696;2023-05-17T08:02:40;18.25;;;3.10;;
29550;SDS011;16488;52.396;10.696;2023-05-17T08:05:05;18.05;;;3.55;;
29550;SDS011;16488;52.396;10.696;2023-05-17T08:07:32;18.88;;;3.05;;
29550;SDS011;16488;52.396;10.696;2023-05-17T08:09:58;14.75;;;3.65;;
29550;SDS011;16488;52.396;10.696;2023-05-17T08:12:24;18.42;;;3.05;;
29550;SDS011;16488;52.396;10.696;2023-05-17T08:14:49;13.23;;;2.50;;
29550;SDS011;16488;52.396;10.696;2023-05-17T08:17:15;14.80;;;3.15;;
29550;SDS011;16488;52.396;10.696;2023-05-17T08:19:41;15.07;;;3.40;;
29550;SDS011;16488;52.396;10.696;2023-05-17T08:22:06;20.98;;;3.33;;
29550;SDS011;16488;52.396;10.696;2023-05-17T08:24:33;11.95;;;2.53;;
29550;SDS011;16488;52.396;10.696;2023-05-17T08:26:59;18.50;;;3.08;;
29550;SDS011;16488;52.396;10.696;2023-05-17T08:29:24;13.45;;;2.97;;
29550;SDS011;16488;52.396;10.696;2023-05-17T08:31:50;15.23;;;4.28;;
29550;SDS011;16488;52.396;10.696;2023-05-17T08:34:16;15.65;;;3.58;;
29550;SDS011;16488;52.396;10.696;2023-05-17T08:36:42;15.80;;;3.60;;
29550;SDS011;16488;52.396;10.696;2023-05-17T08:39:08;17.30;;;4.32;;
29550;SDS011;16488;52.396;10.696;2023-05-17T08:41:34;18.73;;;3.42;;
29550;SDS011;16488;52.396;10.696;2023-05-17T08:44:00;18.98;;;2.90;;
29550;SDS011;16488;52.396;10.696;2023-05-17T08:46:28;21.08;;;3.03;;
29550;SDS011;16488;52.396;10.696;2023-05-17T08:48:55;19.27;;;2.58;;
29550;SDS011;16488;52.396;10.696;2023-05-17T08:51:23;21.58;;;3.85;;
29550;SDS011;16488;52.396;10.696;2023-05-17T08:56:16;13.45;;;2.97;;
29550;SDS011;16488;52.396;10.696;2023-05-17T08:58:43;14.18;;;2.53;;
29550;SDS011;16488;52.396;10.696;2023-05-17T09:01:10;11.75;;;2.38;;
29550;SDS011;16488;52.396;10.696;2023-05-17T09:06:04;19.42;;;3.42;;
29550;SDS011;16488;52.396;10.696;2023-05-17T09:08:31;14.55;;;2.47;;
29550;SDS011;16488;52.396;10.696;2023-05-17T09:10:57;15.45;;;3.17;;
29550;SDS011;16488;52.396;10.696;2023-05-17T09:13:26;21.52;;;3.40;;
29550;SDS011;16488;52.396;10.696;2023-05-17T09:15:52;14.80;;;3.30;;
29550;SDS011;16488;52.396;10.696;2023-05-17T09:20:48;16.05;;;3.03;;
29550;SDS011;16488;52.396;10.696;2023-05-17T09:23:17;19.98;;;3.00;;
29550;SDS011;16488;52.396;10.696;2023-05-17T09:25:48;13.98;;;3.35;;
29550;SDS011;16488;52.396;10.696;2023-05-17T09:28:14;11.13;;;2.55;;
29550;SDS011;16488;52.396;10.696;2023-05-17T09:30:43;7.15;;;2.50;;
29550;SDS011;16488;52.396;10.696;2023-05-17T09:33:11;15.63;;;2.40;;
29550;SDS011;16488;52.396;10.696;2023-05-17T09:35:37;10.13;;;2.55;;
29550;SDS011;16488;52.396;10.696;2023-05-17T09:40:33;14.82;;;2.90;;
29550;SDS011;16488;52.396;10.696;2023-05-17T09:43:03;22.08;;;4.75;;
29550;SDS011;16488;52.396;10.696;2023-05-17T09:45:30;10.82;;;2.60;;
29550;SDS011;16488;52.396;10.696;2023-05-17T09:47:56;16.50;;;3.25;;
29550;SDS011;16488;52.396;10.696;2023-05-17T09:50:23;19.10;;;2.97;;
29550;SDS011;16488;52.396;10.696;2023-05-17T09:52:49;14.93;;;3.55;;
29550;SDS011;16488;52.396;10.696;2023-05-17T09:55:14;22.67;;;3.70;;
29550;SDS011;16488;52.396;10.696;2023-05-17T09:57:41;15.20;;;2.75;;
29550;SDS011;16488;52.396;10.696;2023-05-17T10:00:07;21.05;;;3.17;;
29550;SDS011;16488;52.396;10.696;2023-05-17T10:02:36;20.50;;;3.65;;
29550;SDS011;16488;52.396;10.696;2023-05-17T10:05:03;26.55;;;3.28;;
29550;SDS011;16488;52.396;10.696;2023-05-17T10:07:32;11.45;;;2.97;;
29550;SDS011;16488;52.396;10.696;2023-05-17T10:09:58;17.60;;;4.30;;
29550;SDS011;16488;52.396;10.696;2023-05-17T10:14:57;20.65;;;3.78;;
29550;SDS011;16488;52.396;10.696;2023-05-17T10:17:28;11.32;;;3.47;;
29550;SDS011;16488;52.396;10.696;2023-05-17T10:19:57;17.10;;;3.42;;
29550;SDS011;16488;52.396;10.696;2023-05-17T10:22:23;11.40;;;2.35;;
29550;SDS011;16488;52.396;10.696;2023-05-17T10:24:51;16.42;;;3.42;;
29550;SDS011;16488;52.396;10.696;2023-05-17T10:27:16;13.13;;;3.25;;
29550;SDS011;16488;52.396;10.696;2023-05-17T10:29:42;18.42;;;4.05;;
29550;SDS011;16488;52.396;10.696;2023-05-17T10:34:38;14.45;;;3.00;;
29550;SDS011;16488;52.396;10.696;2023-05-17T10:37:04;12.02;;;3.20;;
29550;SDS011;16488;52.396;10.696;2023-05-17T10:39:30;14.20;;;2.95;;
29550;SDS011;16488;52.396;10.696;2023-05-17T10:41:59;17.67;;;2.50;;
29550;SDS011;16488;52.396;10.696;2023-05-17T10:44:29;12.55;;;2.78;;
29550;SDS011;16488;52.396;10.696;2023-05-17T10:47:00;8.55;;;2.08;;
29550;SDS011;16488;52.396;10.696;2023-05-17T10:49:30;19.02;;;3.38;;
29550;SDS011;16488;52.396;10.696;2023-05-17T10:54:56;12.13;;;3.33;;
29550;SDS011;16488;52.396;10.696;2023-05-17T10:57:34;11.23;;;3.13;;
29550;SDS011;16488;52.396;10.696;2023-05-17T11:00:01;15.90;;;2.30;;
29550;SDS011;16488;52.396;10.696;2023-05-17T11:02:30;11.50;;;2.63;;
29550;SDS011;16488;52.396;10.696;2023-05-17T11:04:56;12.25;;;2.42;;
29550;SDS011;16488;52.396;10.696;2023-05-17T11:07:25;9.38;;;2.20;;
29550;SDS011;16488;52.396;10.696;2023-05-17T11:12:43;17.33;;;2.60;;
29550;SDS011;16488;52.396;10.696;2023-05-17T11:15:15;11.75;;;2.33;;
29550;SDS011;16488;52.396;10.696;2023-05-17T11:20:08;13.77;;;3.25;;
29550;SDS011;16488;52.396;10.696;2023-05-17T11:25:35;13.05;;;2.80;;
29550;SDS011;16488;52.396;10.696;2023-05-17T11:28:12;15.07;;;2.80;;
29550;SDS011;16488;52.396;10.696;2023-05-17T11:30:43;16.27;;;2.38;;
29550;SDS011;16488;52.396;10.696;2023-05-17T11:33:15;16.40;;;2.55;;
29550;SDS011;16488;52.396;10.696;2023-05-17T11:35:41;9.30;;;1.88;;
29550;SDS011;16488;52.396;10.696;2023-05-17T11:40:47;7.65;;;1.77;;
29550;SDS011;16488;52.396;10.696;2023-05-17T11:43:16;7.75;;;2.53;;
29550;SDS011;16488;52.396;10.696;2023-05-17T11:45:56;9.50;;;2.70;;
29550;SDS011;16488;52.396;10.696;2023-05-17T11:48:25;9.90;;;2.00;;
29550;SDS011;16488;52.396;10.696;2023-05-17T11:50:52;7.70;;;1.70;;
29550;SDS011;16488;52.396;10.696;2023-05-17T11:53:19;8.63;;;2.15;;
29550;SDS011;16488;52.396;10.696;2023-05-17T11:58:14;14.25;;;2.22;;
29550;SDS011;16488;52.396;10.696;2023-05-17T12:00:41;8.38;;;2.00;;
29550;SDS011;16488;52.396;10.696;2023-05-17T12:03:21;8.23;;;1.98;;
29550;SDS011;16488;52.396;10.696;2023-05-17T12:05:49;5.65;;;2.65;;
29550;SDS011;16488;52.396;10.696;2023-05-17T12:08:35;8.95;;;3.08;;
29550;SDS011;16488;52.396;10.696;2023-05-17T12:11:02;8.63;;;2.45;;
29550;SDS011;16488;52.396;10.696;2023-05-17T12:13:30;9.38;;;2.10;;
29550;SDS011;16488;52.396;10.696;2023-05-17T12:15:57;10.02;;;2.25;;
29550;SDS011;16488;52.396;10.696;2023-05-17T12:18:38;9.18;;;2.55;;
29550;SDS011;16488;52.396;10.696;2023-05-17T12:21:05;12.27;;;2.83;;
29550;SDS011;16488;52.396;10.696;2023-05-17T12:23:36;8.20;;;2.05;;
29550;SDS011;16488;52.396;10.696;2023-05-17T12:26:08;11.63;;;1.98;;
29550;SDS011;16488;52.396;10.696;2023-05-17T12:28:36;12.90;;;2.47;;
29550;SDS011;16488;52.396;10.696;2023-05-17T12:31:09;8.15;;;2.22;;
29550;SDS011;16488;52.396;10.696;2023-05-17T12:33:37;6.78;;;2.35;;
29550;SDS011;16488;52.396;10.696;2023-05-17T12:36:05;10.70;;;2.33;;
29550;SDS011;16488;52.396;10.696;2023-05-17T12:38:32;9.88;;;2.42;;
29550;SDS011;16488;52.396;10.696;2023-05-17T12:41:02;13.60;;;2.15;;
29550;SDS011;16488;52.396;10.696;2023-05-17T12:43:28;9.65;;;2.25;;
29550;SDS011;16488;52.396;10.696;2023-05-17T12:46:04;15.05;;;2.75;;
29550;SDS011;16488;52.396;10.696;2023-05-17T12:48:32;10.75;;;2.78;;
29550;SDS011;16488;52.396;10.696;2023-05-17T12:51:04;5.57;;;1.92;;
29550;SDS011;16488;52.396;10.696;2023-05-17T12:53:52;9.60;;;1.98;;
29550;SDS011;16488;52.396;10.696;2023-05-17T12:56:26;8.60;;;2.05;;
29550;SDS011;16488;52.396;10.696;2023-05-17T13:01:53;13.80;;;2.63;;
29550;SDS011;16488;52.396;10.696;2023-05-17T13:04:27;8.13;;;2.42;;
29550;SDS011;16488;52.396;10.696;2023-05-17T13:06:56;6.22;;;1.80;;
29550;SDS011;16488;52.396;10.696;2023-05-17T13:09:24;8.48;;;3.10;;
29550;SDS011;16488;52.396;10.696;2023-05-17T13:12:01;10.07;;;2.05;;
29550;SDS011;16488;52.396;10.696;2023-05-17T13:14:32;18.50;;;2.47;;
29550;SDS011;16488;52.396;10.696;2023-05-17T13:17:15;7.85;;;2.65;;
29550;SDS011;16488;52.396;10.696;2023-05-17T13:19:49;8.82;;;2.28;;
29550;SDS011;16488;52.396;10.696;2023-05-17T13:22:15;12.73;;;2.67;;
29550;SDS011;16488;52.396;10.696;2023-05-17T13:24:41;10.15;;;2.50;;
29550;SDS011;16488;52.396;10.696;2023-05-17T13:27:08;12.95;;;2.13;;
29550;SDS011;16488;52.396;10.696;2023-05-17T13:32:01;10.63;;;2.38;;
29550;SDS011;16488;52.396;10.696;2023-05-17T13:34:27;6.43;;;1.85;;
29550;SDS011;16488;52.396;10.696;2023-05-17T13:36:53;7.47;;;2.70;;
29550;SDS011;16488;52.396;10.696;2023-05-17T13:39:21;6.68;;;2.03;;
29550;SDS011;16488;52.396;10.696;2023-05-17T13:41:46;10.38;;;3.17;;
29550;SDS011;16488;52.396;10.696;2023-05-17T13:44:12;7.70;;;2.40;;
29550;SDS011;16488;52.396;10.696;2023-05-17T13:46:38;10.18;;;2.25;;
29550;SDS011;16488;52.396;10.696;2023-05-17T13:49:03;14.20;;;2.63;;
29550;SDS011;16488;52.396;10.696;2023-05-17T13:51:31;8.88;;;1.73;;
29550;SDS011;16488;52.396;10.696;2023-05-17T13:53:58;5.90;;;1.85;;
29550;SDS011;16488;52.396;10.696;2023-05-17T13:56:24;12.40;;;2.72;;
29550;SDS011;16488;52.396;10.696;2023-05-17T13:58:50;10.20;;;1.92;;
29550;SDS011;16488;52.396;10.696;2023-05-17T14:01:16;8.50;;;2.42;;
29550;SDS011;16488;52.396;10.696;2023-05-17T14:03:43;4.40;;;1.70;;
29550;SDS011;16488;52.396;10.696;2023-05-17T14:08:34;8.05;;;1.85;;
29550;SDS011;16488;52.396;10.696;2023-05-17T14:11:00;8.07;;;1.80;;
29550;SDS011;16488;52.396;10.696;2023-05-17T14:13:26;7.47;;;1.80;;
29550;SDS011;16488;52.396;10.696;2023-05-17T14:15:52;6.10;;;2.10;;
29550;SDS011;16488;52.396;10.696;2023-05-17T14:18:17;7.27;;;2.40;;
29550;SDS011;16488;52.396;10.696;2023-05-17T14:20:43;8.00;;;1.85;;
29550;SDS011;16488;52.396;10.696;2023-05-17T14:23:09;6.50;;;2.15;;
29550;SDS011;16488;52.396;10.696;2023-05-17T14:25:34;11.40;;;1.88;;
29550;SDS011;16488;52.396;10.696;2023-05-17T14:28:00;22.58;;;2.70;;
29550;SDS011;16488;52.396;10.696;2023-05-17T14:30:26;14.95;;;2.80;;
29550;SDS011;16488;52.396;10.696;2023-05-17T14:32:51;10.23;;;2.70;;
29550;SDS011;16488;52.396;10.696;2023-05-17T14:35:17;7.82;;;2.63;;
29550;SDS011;16488;52.396;10.696;2023-05-17T14:37:43;8.73;;;1.90;;
29550;SDS011;16488;52.396;10.696;2023-05-17T14:40:08;8.57;;;1.83;;
29550;SDS011;16488;52.396;10.696;2023-05-17T14:42:34;14.25;;;1.75;;
29550;SDS011;16488;52.396;10.696;2023-05-17T14:45:00;6.43;;;1.55;;
29550;SDS011;16488;52.396;10.696;2023-05-17T14:47:26;12.00;;;1.77;;
29550;SDS011;16488;52.396;10.696;2023-05-17T14:49:51;5.85;;;2.17;;
29550;SDS011;16488;52.396;10.696;2023-05-17T14:52:17;10.67;;;1.93;;
29550;SDS011;16488;52.396;10.696;2023-05-17T14:54:43;7.10;;;1.77;;
29550;SDS011;16488;52.396;10.696;2023-05-17T14:57:09;14.23;;;2.33;;
29550;SDS011;16488;52.396;10.696;2023-05-17T14:59:35;8.35;;;1.38;;
29550;SDS011;16488;52.396;10.696;2023-05-17T15:02:01;6.32;;;2.10;;
29550;SDS011;16488;52.396;10.696;2023-05-17T15:04:28;8.90;;;2.45;;
29550;SDS011;16488;52.396;10.696;2023-05-17T15:06:54;6.72;;;1.60;;
29550;SDS011;16488;52.396;10.696;2023-05-17T15:09:20;6.15;;;1.83;;
29550;SDS011;16488;52.396;10.696;2023-05-17T15:11:47;7.75;;;1.67;;
29550;SDS011;16488;52.396;10.696;2023-05-17T15:14:13;14.43;;;2.88;;
29550;SDS011;16488;52.396;10.696;2023-05-17T15:16:49;6.90;;;1.98;;
29550;SDS011;16488;52.396;10.696;2023-05-17T15:19:16;10.25;;;2.40;;